• Join FlightAware (Why Join?)
  • Login
  • US Flag 
03:53PM EDT


 

Airport Tracker/Info


-or-


 

Live Flight TrackerFlight Track Log ✈ UPS984 ✈ 30-Oct-2013 ✈ KONT - KBFI

Flight Track Log - Related Links

Times and Time Zones

All times are in EDT time to prevent confusion due to time zone crossing. See the UPS984 flight status page for this flight to view local times or setup timezone preferences in your user account.

Time Position Orientation Groundspeed Altitude Reporting Facility
EDT Latitude Longitude Course Direction KTS MPH feet Rate Location/Type
05:09AM 34.0550 -117.5880 360° North 178 205 1,200  Level FlightAware
05:10AM 34.0320 -117.5500 126° Southeast 222 255 3,000 2,040 Climbing FlightAware
05:11AM 34.0110 -117.5570 195° South 236 272 3,700 2,220 Climbing FlightAware
05:12AM 34.0060 -117.6280 265° West 260 299 6,000 2,100 Climbing FlightAware
05:12AM 34.0270 -117.6700 301° West 276 318 6,800 840 Climbing FlightAware
05:13AM 34.0460 -117.7100 300° West 272 313 6,900 1,140 Climbing FlightAware
05:13AM 34.0700 -117.7670 297° West 271 312 8,200 2,520 Climbing FlightAware
05:14AM 34.0813 -117.7893 301° West 264 304 9,600 2,640 Climbing FlightAware ADS-B
05:14AM 34.1080 -117.8304 308° West 281 323 10,600 1,620 Climbing FlightAware ADS-B
05:15AM 34.1459 -117.8853 310° West 327 376 11,600 1,860 Climbing FlightAware ADS-B
05:15AM 34.1827 -117.9390 310° West 362 417 13,000 2,760 Climbing FlightAware ADS-B
05:16AM 34.2460 -118.0330 309° West 377 434 16,000 3,120 Climbing FlightAware
05:17AM 34.2840 -118.0870 310° West 386 444 17,700 3,000 Climbing FlightAware
05:18AM 34.3230 -118.1460 309° West 392 451 19,400 2,820 Climbing FlightAware
05:18AM 34.3760 -118.2230 310° West 399 459 21,500 2,640 Climbing FlightAware
05:19AM 34.4140 -118.2800 309° West 404 465 22,900 2,400 Climbing FlightAware
05:20AM 34.4820 -118.3800 310° West 414 476 25,100 2,220 Climbing FlightAware
05:20AM 34.5210 -118.4380 309° West 419 482 26,200 1,860 Climbing FlightAware
05:21AM 34.5940 -118.5010 325° Northwest 430 495 27,500 1,800 Climbing FlightAware
05:21AM 34.6400 -118.5310 332° Northwest 430 495 28,400 2,280 Climbing FlightAware
05:22AM 34.7210 -118.5710 338° Northwest 419 482 30,300 2,220 Climbing FlightAware
05:23AM 34.8080 -118.5960 347° North 419 482 31,800 1,260 Climbing FlightAware
05:24AM 34.8750 -118.6140 348° North 417 480 32,000 120 Climbing FlightAware
05:24AM 34.9400 -118.6310 348° North 415 478 32,000  Level FlightAware
05:25AM 35.0300 -118.6560 347° North 419 482 32,000  Level FlightAware
05:26AM 35.1070 -118.6780 347° North 417 480 32,000  Level FlightAware
05:26AM 35.1730 -118.6960 347° North 417 480 32,000  Level FlightAware
05:27AM 35.2490 -118.7180 347° North 416 479 32,000  Level FlightAware
05:28AM 35.3290 -118.7400 347° North 415 478 32,000  Level FlightAware
05:28AM 35.4000 -118.7600 347° North 414 476 32,000  Level FlightAware
05:29AM 35.4590 -118.7760 348° North 413 475 32,000  Level FlightAware
05:30AM 35.5410 -118.7990 347° North 411 473 32,000  Level FlightAware
05:30AM 35.6080 -118.8190 346° North 410 472 32,000  Level FlightAware
05:31AM 35.6760 -118.8400 346° North 409 471 32,000  Level FlightAware
05:31AM 35.7560 -118.8650 346° North 408 470 32,000  Level FlightAware
05:32AM 35.8230 -118.8850 346° North 408 470 32,000  Level FlightAware
05:33AM 35.9380 -118.9200 346° North 406 467 32,000  Level FlightAware
05:34AM 36.0050 -118.9400 346° North 406 467 32,000  Level FlightAware
05:34AM 36.0770 -118.9620 346° North 405 466 32,000  Level FlightAware
05:35AM 36.1390 -118.9810 346° North 404 465 32,000  Level FlightAware
05:36AM 36.2610 -119.0180 346° North 403 464 32,000  Level FlightAware
05:37AM 36.3360 -119.0410 346° North 402 463 32,000  Level FlightAware
05:37AM 36.4060 -119.0630 346° North 401 461 32,000  Level FlightAware
05:38AM 36.4850 -119.0870 346° North 399 459 32,000  Level FlightAware
05:39AM 36.5540 -119.1080 346° North 398 458 32,000  Level FlightAware
05:39AM 36.6240 -119.1300 346° North 398 458 32,000  Level FlightAware
05:40AM 36.6900 -119.1510 346° North 397 457 32,000  Level FlightAware
05:41AM 36.7630 -119.1730 346° North 398 458 32,000  Level FlightAware
05:42AM 36.8670 -119.2060 346° North 398 458 32,000  Level FlightAware
05:42AM 36.9330 -119.2260 346° North 397 457 32,000  Level FlightAware
05:43AM 37.0150 -119.2520 346° North 396 456 32,000  Level FlightAware
05:44AM 37.0840 -119.2730 346° North 395 455 32,000  Level FlightAware
05:44AM 37.1580 -119.2970 346° North 394 453 32,000  Level FlightAware
05:45AM 37.2230 -119.3170 346° North 394 453 32,000  Level FlightAware
05:46AM 37.3020 -119.3420 346° North 394 453 32,000  Level FlightAware
05:46AM 37.3670 -119.3630 346° North 393 452 32,000  Level FlightAware
05:47AM 37.4260 -119.3810 346° North 391 450 32,000  Level FlightAware
05:48AM 37.5090 -119.4070 346° North 391 450 32,000  Level FlightAware
05:48AM 37.5730 -119.4280 345° North 392 451 32,000  Level FlightAware
05:49AM 37.6880 -119.4650 346° North 393 452 32,000  Level FlightAware
05:50AM 37.7600 -119.4880 346° North 391 450 32,000  Level FlightAware
05:51AM 37.8330 -119.5110 346° North 394 453 32,000  Level FlightAware
05:51AM 37.8870 -119.5280 346° North 395 455 32,000  Level FlightAware
05:52AM 37.9550 -119.5500 346° North 395 455 32,000  Level FlightAware
05:53AM 38.0210 -119.5710 346° North 396 456 32,000  Level FlightAware
05:53AM 38.0870 -119.5920 346° North 398 458 32,000  Level FlightAware
05:54AM 38.1545 -119.6144 345° North 400 460 32,000  Level FlightAware ADS-B (KAHC)
05:54AM 38.2160 -119.6340 346° North 400 460 32,000  Level FlightAware
05:55AM 38.3011 -119.6620 346° North 402 463 32,000  Level FlightAware ADS-B (KAHC)
05:56AM 38.3778 -119.6866 346° North 402 463 32,000  Level FlightAware ADS-B (KAHC)
05:56AM 38.4410 -119.7070 346° North 404 465 32,000  Level FlightAware
05:57AM 38.5200 -119.7330 346° North 406 467 32,000  Level FlightAware
05:57AM 38.5427 -119.7405 346° North 406 467 32,000  Level FlightAware ADS-B (KAHC)
05:58AM 38.6100 -119.7630 345° North 406 467 32,000  Level FlightAware
05:59AM 38.6660 -119.7810 346° North 407 468 32,000  Level FlightAware
05:59AM 38.6998 -119.7918 346° North 408 470 32,000  Level FlightAware ADS-B (KAHC)
06:00AM 38.7754 -119.8167 346° North 409 471 32,000  Level FlightAware ADS-B (KAHC)
06:00AM 38.8344 -119.8360 346° North 410 472 32,000  Level FlightAware ADS-B (KAHC)
06:01AM 38.8891 -119.8541 346° North 411 473 32,000  Level FlightAware ADS-B (KAHC)
06:01AM 38.9607 -119.8779 346° North 413 475 32,000  Level FlightAware ADS-B (KAHC)
06:02AM 39.0346 -119.9023 346° North 413 475 32,000  Level FlightAware ADS-B (KAHC)
06:02AM 39.0914 -119.9210 346° North 414 476 32,000  Level FlightAware ADS-B (KAHC)
06:03AM 39.1435 -119.9384 345° North 414 476 32,000  Level FlightAware ADS-B (KAHC)
06:04AM 39.2227 -119.9648 346° North 414 476 32,000  Level FlightAware ADS-B (KAHC)
06:04AM 39.2764 -119.9827 346° North 414 476 32,000  Level FlightAware ADS-B (KAHC)
06:05AM 39.3297 -120.0005 345° North 415 478 32,000  Level FlightAware ADS-B (KAHC)
06:05AM 39.3870 -120.0197 346° North 414 476 32,000  Level FlightAware ADS-B (KAHC)
06:06AM 39.4435 -120.0386 345° North 415 478 32,000  Level FlightAware ADS-B (KAHC)
06:06AM 39.5005 -120.0579 345° North 415 478 32,000  Level FlightAware ADS-B (KAHC)
06:07AM 39.5570 -120.0767 346° North 415 478 32,000  Level FlightAware ADS-B (KAHC)
06:07AM 39.6128 -120.0956 345° North 417 480 32,000  Level FlightAware ADS-B (KAHC)
06:08AM 39.6654 -120.1133 345° North 417 480 32,000  Level FlightAware ADS-B (KAHC)
06:08AM 39.7174 -120.1308 345° North 419 482 32,000  Level FlightAware ADS-B (KAHC)
06:09AM 39.7797 -120.1519 345° North 420 483 32,000  Level FlightAware ADS-B (KAHC)
06:09AM 39.8372 -120.1714 345° North 421 484 32,000  Level FlightAware ADS-B (KAHC)
06:10AM 39.8936 -120.1906 345° North 421 484 32,000  Level FlightAware ADS-B (KAHC)
06:10AM 39.9470 -120.2087 345° North 422 486 32,000  Level FlightAware ADS-B (KAHC)
06:11AM 40.0040 -120.2282 345° North 422 486 32,000  Level FlightAware ADS-B (KAHC)
06:11AM 40.0617 -120.2479 345° North 423 487 32,000  Level FlightAware ADS-B (KAHC)
06:12AM 40.1205 -120.2679 345° North 424 488 32,000  Level FlightAware ADS-B (KAHC)
06:12AM 40.1775 -120.2876 345° North 425 489 32,000  Level FlightAware ADS-B (KAHC)
06:13AM 40.2347 -120.3072 345° North 425 489 32,000  Level FlightAware ADS-B (KAHC)
06:13AM 40.2912 -120.3266 345° North 426 490 32,000  Level FlightAware ADS-B (KAHC)
06:14AM 40.3478 -120.3460 345° North 427 491 32,000  Level FlightAware ADS-B (KAHC)
06:14AM 40.4037 -120.3653 345° North 427 491 32,000  Level FlightAware ADS-B (KAHC)
06:15AM 40.4631 -120.3859 345° North 428 493 32,000  Level FlightAware ADS-B (KAHC)
06:15AM 40.5202 -120.4057 345° North 428 493 32,000  Level FlightAware ADS-B (KAHC)
06:16AM 40.5760 -120.4250 345° North 428 493 32,000  Level FlightAware ADS-B (KAHC)
06:16AM 40.6356 -120.4457 345° North 428 493 32,000  Level FlightAware ADS-B (KAHC)
06:17AM 40.6927 -120.4656 345° North 429 494 32,000  Level FlightAware ADS-B (KAHC)
06:17AM 40.7506 -120.4858 345° North 430 495 32,000  Level FlightAware ADS-B (KAHC)
06:18AM 40.8224 -120.5109 345° North 431 496 32,000  Level FlightAware ADS-B (KAHC)
06:18AM 40.8854 -120.5330 345° North 432 497 32,000  Level FlightAware ADS-B (KAHC)
06:19AM 40.9398 -120.5520 345° North 432 497 32,000  Level FlightAware ADS-B (KAHC)
06:20AM 41.0300 -120.5840 345° North 430 495 32,000  Level FlightAware
06:20AM 41.0710 -120.5990 345° North 430 495 32,000  Level FlightAware
06:21AM 41.1490 -120.6260 345° North 430 495 32,000  Level FlightAware
06:22AM 41.2080 -120.6470 345° North 430 495 32,000  Level FlightAware
06:22AM 41.2670 -120.6680 345° North 430 495 32,000  Level FlightAware
06:23AM 41.3260 -120.6890 345° North 430 495 32,000  Level FlightAware
06:24AM 41.4040 -120.7170 345° North 430 495 32,000  Level FlightAware
06:24AM 41.4630 -120.7380 345° North 430 495 32,000  Level FlightAware
06:25AM 41.5630 -120.7740 345° North 430 495 32,000  Level FlightAware
06:26AM 41.6210 -120.7950 345° North 430 495 32,000  Level FlightAware
06:26AM 41.6610 -120.8090 345° North 430 495 32,000  Level FlightAware
06:27AM 41.7390 -120.8370 345° North 430 495 32,000  Level FlightAware
06:28AM 41.7980 -120.8580 345° North 430 495 32,000  Level FlightAware
06:28AM 41.8580 -120.8800 345° North 430 495 32,000  Level FlightAware
06:29AM 41.8970 -120.8940 345° North 430 495 32,000  Level FlightAware
06:30AM 42.2278 -121.0136 345° North 453 521 32,000  Level Seattle Center
06:31AM 42.3464 -121.0572 345° North 446 513 32,000  Level Seattle Center
06:32AM 42.4675 -121.1017 345° North 447 514 32,000  Level Seattle Center
06:33AM 42.5844 -121.1450 345° North 447 514 32,000  Level Seattle Center
06:34AM 42.7042 -121.1894 345° North 448 516 32,000  Level Seattle Center
06:39AM 43.3220 -121.4210 345° North 453 521 32,000  Level FlightAware
06:40AM 43.4080 -121.4550 344° North 453 521 32,000  Level FlightAware
06:40AM 43.4490 -121.4720 343° North 453 521 32,000  Level FlightAware
06:41AM 43.5310 -121.5040 344° North 453 521 32,000  Level FlightAware
06:41AM 43.5930 -121.5280 344° North 453 521 32,000  Level FlightAware
06:42AM 43.6540 -121.5530 343° North 453 521 32,000  Level FlightAware
06:43AM 43.7960 -121.6030 346° North 454 522 32,000  Level FlightAware
06:43AM 43.8620 -121.6280 345° North 455 524 32,000  Level FlightAware
06:44AM 43.9390 -121.6590 344° North 455 524 32,000  Level FlightAware
06:44AM 44.0010 -121.6830 344° North 455 524 32,000  Level FlightAware
06:45AM 44.0650 -121.7070 345° North 457 526 32,000  Level FlightAware
06:46AM 44.1540 -121.7420 344° North 458 527 32,000  Level FlightAware
06:46AM 44.2550 -121.7820 344° North 460 529 32,000  Level FlightAware
06:47AM 44.3390 -121.8140 345° North 462 532 32,000  Level FlightAware
06:48AM 44.3900 -121.8350 344° North 462 532 32,000  Level FlightAware
06:48AM 44.4780 -121.8690 345° North 463 533 32,000  Level FlightAware
06:49AM 44.5700 -121.9060 344° North 464 534 32,000  Level FlightAware
06:50AM 44.6490 -121.9370 344° North 464 534 32,000  Level FlightAware
06:50AM 44.7380 -121.9730 344° North 465 535 32,000  Level FlightAware
06:51AM 44.8190 -122.0050 344° North 466 536 32,000  Level FlightAware
06:52AM 44.9670 -122.0640 344° North 467 537 32,000  Level FlightAware
06:53AM 45.0380 -122.0930 344° North 468 539 32,000  Level FlightAware
06:54AM 45.1413 -122.1350 344° North 468 539 32,000  Level FlightAware ADS-B
06:54AM 45.2050 -122.1610 344° North 468 539 32,000  Level FlightAware ADS-B
06:55AM 45.2689 -122.1860 345° North 469 540 32,000  Level FlightAware ADS-B
06:55AM 45.3333 -122.2130 344° North 469 540 32,000  Level FlightAware ADS-B
06:56AM 45.3960 -122.2380 344° North 470 541 32,000  Level FlightAware ADS-B
06:56AM 45.4593 -122.2640 344° North 470 541 32,000  Level FlightAware ADS-B
06:57AM 45.5225 -122.2900 344° North 471 542 32,000  Level FlightAware ADS-B
06:57AM 45.5853 -122.3160 344° North 472 543 32,000  Level FlightAware ADS-B
06:58AM 45.6483 -122.3420 344° North 472 543 32,000  Level FlightAware ADS-B
06:58AM 45.7115 -122.3680 344° North 472 543 32,000  Level FlightAware ADS-B
06:59AM 45.7748 -122.3940 344° North 470 541 32,000 -480 Level FlightAware ADS-B
06:59AM 45.8290 -122.4170 344° North 469 540 31,600 -960 Descending FlightAware ADS-B
06:59AM 45.8876 -122.4340 349° North 467 537 31,200 -1,020 Descending FlightAware ADS-B
07:00AM 45.9327 -122.4420 353° North 468 539 30,800 -1,200 Descending FlightAware ADS-B
07:00AM 45.9979 -122.4490 356° North 471 542 30,200 -1,200 Descending FlightAware ADS-B
07:01AM 46.0653 -122.4570 355° North 473 544 29,600 -1,080 Descending FlightAware ADS-B
07:01AM 46.1315 -122.4630 356° North 471 542 29,100 -900 Descending FlightAware ADS-B
07:02AM 46.1966 -122.4700 356° North 468 539 28,700 -840 Descending FlightAware ADS-B
07:02AM 46.2616 -122.4770 356° North 466 536 28,300 -840 Descending FlightAware ADS-B
07:03AM 46.3222 -122.4830 356° North 464 534 27,900 -1,020 Descending FlightAware ADS-B
07:03AM 46.3867 -122.4900 356° North 457 526 27,300 -1,920 Descending FlightAware ADS-B
07:04AM 46.4500 -122.4970 356° North 450 518 26,000 -2,520 Descending FlightAware ADS-B
07:04AM 46.5150 -122.5040 356° North 443 510 24,700 -2,640 Descending FlightAware ADS-B
07:05AM 46.6113 -122.5130 356° North 436 502 22,600 -2,520 Descending FlightAware ADS-B
07:06AM 46.6716 -122.5080 North 427 491 21,500 -2,280 Descending FlightAware ADS-B
07:06AM 46.7328 -122.5040 North 421 484 20,300 -2,280 Descending FlightAware ADS-B
07:07AM 46.7913 -122.5020 North 411 473 19,200 -2,220 Descending FlightAware ADS-B
07:07AM 46.8579 -122.4990 North 399 459 17,900 -2,280 Descending FlightAware ADS-B
07:08AM 46.9137 -122.4980 North 397 457 16,700 -2,400 Descending FlightAware ADS-B
07:08AM 46.9686 -122.4960 North 391 450 15,500 -2,280 Descending FlightAware ADS-B
07:09AM 47.0226 -122.4940 North 385 443 14,400 -2,220 Descending FlightAware ADS-B
07:09AM 47.0764 -122.4920 North 381 438 13,300 -2,220 Descending FlightAware ADS-B
07:10AM 47.1290 -122.4900 North 376 433 12,200 -2,040 Descending FlightAware ADS-B
07:10AM 47.1807 -122.4880 North 367 422 11,300 -1,800 Descending FlightAware ADS-B
07:11AM 47.2312 -122.4870 North 357 411 10,400 -1,440 Descending FlightAware ADS-B
07:11AM 47.2716 -122.4850 North 340 391 10,000 -780 Descending FlightAware ADS-B
07:11AM 47.2947 -122.4840 North 326 375 9,900 -420 Descending FlightAware ADS-B
07:12AM 47.3156 -122.4830 North 314 361 9,800 -360 Descending FlightAware ADS-B
07:12AM 47.3214 -122.4840 353° North 308 354 9,800  Level FlightAware ADS-B
07:12AM 47.3278 -122.4850 354° North 302 348 9,800 300 Level FlightAware ADS-B
07:12AM 47.3480 -122.4900 350° North 285 328 9,900 180 Climbing FlightAware ADS-B
07:12AM 47.3681 -122.4950 350° North 271 312 9,900 -600 Level FlightAware ADS-B
07:13AM 47.3864 -122.5000 350° North 259 298 9,600 -1,920 Descending FlightAware ADS-B
07:13AM 47.4033 -122.5040 351° North 257 296 9,000 -2,160 Descending FlightAware ADS-B
07:13AM 47.4189 -122.5080 350° North 254 292 8,600 -1,920 Descending FlightAware ADS-B
07:13AM 47.4361 -122.5130 349° North 251 289 8,100 -2,160 Descending FlightAware ADS-B
07:14AM 47.4548 -122.5180 350° North 251 289 7,500 -2,520 Descending FlightAware ADS-B
07:14AM 47.4699 -122.5220 350° North 255 293 6,900 -2,520 Descending FlightAware ADS-B
07:14AM 47.4878 -122.5270 349° North 255 293 6,300 -1,980 Descending FlightAware ADS-B
07:14AM 47.5049 -122.5320 349° North 248 285 5,900 -1,800 Descending FlightAware ADS-B
07:15AM 47.5217 -122.5370 349° North 244 281 5,400 -2,160 Descending FlightAware ADS-B
07:15AM 47.5394 -122.5420 349° North 246 283 4,800 -2,160 Descending FlightAware ADS-B
07:16AM 47.5864 -122.5500 353° North 248 285 3,400 -1,800 Descending FlightAware ADS-B
07:16AM 47.6039 -122.5510 358° North 235 270 3,100 -720 Descending FlightAware ADS-B
07:16AM 47.6245 -122.5520 358° North 221 254 3,000 -600 Descending FlightAware ADS-B
07:17AM 47.6467 -122.5490 North 221 254 2,700 -900 Descending FlightAware ADS-B
07:17AM 47.6596 -122.5330 40° Northeast 211 243 2,400 -960 Descending FlightAware ADS-B
07:17AM 47.6673 -122.5150 58° Northeast 212 244 2,200 -720 Descending FlightAware ADS-B
07:17AM 47.6738 -122.5000 57° Northeast 203 234 2,100 -300 Descending FlightAware ADS-B
07:17AM 47.6792 -122.4860 60° Northeast 193 222 2,100  Level FlightAware ADS-B
07:18AM 47.6810 -122.4760 75° East 189 217 2,100  Level FlightAware ADS-B
07:18AM 47.6804 -122.4670 96° East 187 215 2,100  Level FlightAware ADS-B
07:18AM 47.6790 -122.4620 113° Southeast 186 214 2,100  Level FlightAware ADS-B
07:18AM 47.6700 -122.4330 115° Southeast 180 207 2,100  Level FlightAware ADS-B
07:18AM 47.6636 -122.4170 121° Southeast 180 207 2,100  Level FlightAware ADS-B
07:19AM 47.6615 -122.4140 136° Southeast 176 203 2,100  Level FlightAware ADS-B
07:19AM 47.6578 -122.4100 144° Southeast 173 199 2,100  Level FlightAware ADS-B
07:19AM 47.6547 -122.4080 157° South 174 200 2,100  Level FlightAware ADS-B
07:19AM 47.6452 -122.4000 150° Southeast 169 194 2,100 -240 Level FlightAware ADS-B
07:19AM 47.6356 -122.3920 151° Southeast 153 176 2,000 -420 Descending FlightAware ADS-B
07:19AM 47.6265 -122.3840 149° Southeast 154 177 1,900 -720 Descending FlightAware ADS-B
07:20AM 47.6188 -122.3780 152° Southeast 145 167 1,700 -840 Descending FlightAware ADS-B
07:20AM 47.6091 -122.3690 148° Southeast 141 162 1,500 -720 Descending FlightAware ADS-B
07:20AM 47.5987 -122.3610 153° Southeast 143 165 1,300 -840 Descending FlightAware ADS-B
07:21AM 47.5877 -122.3510 148° Southeast 146 168 1,000 -840 Descending FlightAware ADS-B
07:21AM 47.5630 -122.3300 150° Southeast 135 155 400 -540 Descending FlightAware
07:22AM 47.5450 -122.3150 151° Southeast 135 155 300 -180 Descending FlightAware